createdAt,value
2023-04-09T00:00:06.443Z,101456.4296875
2023-04-09T00:01:06.451Z,101452.19140625
2023-04-09T00:02:11.396Z,101457.4140625
2023-04-09T00:03:06.474Z,101455.81640625
2023-04-09T00:04:06.499Z,101455.06640625
2023-04-09T00:05:06.458Z,101458.26171875
2023-04-09T00:06:06.423Z,101455.9296875
2023-04-09T00:07:06.854Z,101453.984375
2023-04-09T00:08:06.440Z,101452.515625
2023-04-09T00:09:06.446Z,101452.4921875
2023-04-09T00:10:06.476Z,101451.75390625
2023-04-09T00:11:06.421Z,101453.4140625
2023-04-09T00:12:06.853Z,101450.59375
2023-04-09T00:13:08.803Z,101449.515625
2023-04-09T00:14:06.447Z,101452.30078125
2023-04-09T00:15:06.438Z,101452.78515625
2023-04-09T00:16:06.469Z,101450.88671875
2023-04-09T00:17:06.857Z,101453.92578125
2023-04-09T00:18:06.466Z,101452.93359375
2023-04-09T00:19:06.411Z,101451.98828125
2023-04-09T00:20:06.441Z,101454.30078125
2023-04-09T00:21:06.423Z,101454.29296875
2023-04-09T00:22:06.840Z,101451.11328125
2023-04-09T00:23:06.448Z,101448.51953125
2023-04-09T00:24:08.781Z,101445.73828125
2023-04-09T00:25:06.438Z,101445.8984375
2023-04-09T00:26:06.437Z,101445.390625
2023-04-09T00:27:06.844Z,101444.578125
2023-04-09T00:28:06.417Z,101445.6640625
2023-04-09T00:29:06.440Z,101445.484375
2023-04-09T00:30:06.428Z,101446.3984375
2023-04-09T00:31:06.438Z,101447.19140625
2023-04-09T00:32:06.976Z,101444.20703125
2023-04-09T00:33:06.659Z,101444.83984375
2023-04-09T00:34:06.435Z,101445.3984375
2023-04-09T00:35:08.761Z,101443.34375
2023-04-09T00:36:06.440Z,101445.375
2023-04-09T00:37:06.833Z,101448.25390625
2023-04-09T00:38:06.433Z,101449.94140625
2023-04-09T00:39:06.443Z,101444.23828125
2023-04-09T00:40:07.381Z,101442.02734375
2023-04-09T00:41:06.442Z,101441.48046875
2023-04-09T00:42:06.844Z,101442.87109375
2023-04-09T00:43:06.438Z,101440.015625
2023-04-09T00:44:06.427Z,101443.54296875
2023-04-09T00:45:06.547Z,101438.9140625
2023-04-09T00:46:08.835Z,101433.89453125
2023-04-09T00:47:06.851Z,101439.515625
2023-04-09T00:48:06.445Z,101436.859375
2023-04-09T00:49:06.431Z,101435.51171875
2023-04-09T00:50:06.408Z,101435.05859375
2023-04-09T00:51:06.442Z,101431.12109375
2023-04-09T00:52:06.864Z,101429.00390625
2023-04-09T00:53:06.407Z,101431.8828125
2023-04-09T00:54:06.430Z,101430.3984375
2023-04-09T00:55:06.462Z,101430.44921875
2023-04-09T00:56:06.418Z,101431.28515625
2023-04-09T00:57:09.139Z,101430.85546875
2023-04-09T00:58:06.407Z,101429.79296875
2023-04-09T00:59:06.423Z,101428.89453125
2023-04-09T01:00:06.441Z,101428.46484375
2023-04-09T01:01:06.497Z,101428.796875
2023-04-09T01:02:07.402Z,101431.30859375
2023-04-09T01:03:06.510Z,101429.73046875
2023-04-09T01:04:06.432Z,101434.9453125
2023-04-09T01:05:06.451Z,101435.55078125
2023-04-09T01:06:06.443Z,101434.83203125
2023-04-09T01:07:06.850Z,101437.7421875
2023-04-09T01:08:08.775Z,101436.54296875
2023-04-09T01:09:06.450Z,101438.16796875
2023-04-09T01:10:06.423Z,101439.41796875
2023-04-09T01:11:06.464Z,101437.8828125
2023-04-09T01:12:06.851Z,101440.59765625
2023-04-09T01:13:06.436Z,101440.20703125
2023-04-09T01:14:06.440Z,101442.56640625
2023-04-09T01:15:06.429Z,101437.6796875
2023-04-09T01:16:06.439Z,101439.44921875
2023-04-09T01:17:06.882Z,101435.3984375
2023-04-09T01:18:06.487Z,101435.984375
2023-04-09T01:19:08.818Z,101438.375
2023-04-09T01:20:06.451Z,101437.1640625
2023-04-09T01:21:06.481Z,101434.20703125
2023-04-09T01:22:06.864Z,101432.4140625
2023-04-09T01:23:06.529Z,101435.3984375
2023-04-09T01:24:06.435Z,101437.4296875
2023-04-09T01:25:06.524Z,101435.3203125
2023-04-09T01:26:06.406Z,101436.546875
2023-04-09T01:27:06.862Z,101434.55859375
2023-04-09T01:28:06.436Z,101434.9453125
2023-04-09T01:29:06.430Z,101433.3125
2023-04-09T01:30:08.814Z,101436.87109375
2023-04-09T01:31:06.644Z,101434.140625
2023-04-09T01:32:06.841Z,101436.65625
2023-04-09T01:33:06.446Z,101436.38671875
2023-04-09T01:34:06.424Z,101437.8515625
2023-04-09T01:35:06.430Z,101439.83984375
2023-04-09T01:36:06.442Z,101440.2890625
2023-04-09T01:37:06.843Z,101434.2265625
2023-04-09T01:38:06.422Z,101434.46484375
2023-04-09T01:39:06.413Z,101437.79296875
2023-04-09T01:40:07.362Z,101434.6171875
2023-04-09T01:41:08.796Z,101435.3671875
2023-04-09T01:42:06.845Z,101437
2023-04-09T01:43:06.575Z,101437.515625
2023-04-09T01:44:06.418Z,101437.0703125
2023-04-09T01:45:06.422Z,101435.26953125
2023-04-09T01:46:06.424Z,101435.1484375
2023-04-09T01:47:06.829Z,101434.3203125
2023-04-09T01:48:06.441Z,101433.73046875
2023-04-09T01:49:06.463Z,101434.36328125
2023-04-09T01:50:06.422Z,101435.42578125
2023-04-09T01:51:06.415Z,101436.921875
2023-04-09T01:52:11.269Z,101433.4609375
2023-04-09T01:53:06.425Z,101439.14453125
2023-04-09T01:54:06.441Z,101435.7109375
2023-04-09T01:55:06.430Z,101435.0859375
2023-04-09T01:56:06.437Z,101434.03125
2023-04-09T01:57:06.841Z,101436.31640625
2023-04-09T01:58:06.451Z,101437.265625
2023-04-09T01:59:06.441Z,101437.328125
2023-04-09T02:00:06.417Z,101436.05078125
2023-04-09T02:01:06.452Z,101435.265625
2023-04-09T02:02:06.909Z,101435.97265625
2023-04-09T02:03:08.944Z,101435.53125
2023-04-09T02:04:06.509Z,101433.140625
2023-04-09T02:05:06.420Z,101435.44140625
2023-04-09T02:06:06.435Z,101437.1640625
2023-04-09T02:07:06.848Z,101437.0234375
2023-04-09T02:08:06.416Z,101436.53515625
2023-04-09T02:09:06.432Z,101437.671875
2023-04-09T02:10:06.485Z,101440.87890625
2023-04-09T02:11:06.461Z,101439.80859375
2023-04-09T02:12:06.967Z,101439.47265625
2023-04-09T02:13:06.572Z,101440.1484375
2023-04-09T02:14:08.989Z,101438.82421875
2023-04-09T02:15:06.619Z,101441.3828125
2023-04-09T02:16:06.616Z,101440.29296875
2023-04-09T02:17:06.512Z,101439.12890625
2023-04-09T02:18:06.440Z,101438.59375
2023-04-09T02:19:06.438Z,101441.39453125
2023-04-09T02:20:06.425Z,101442.51171875
2023-04-09T02:21:06.462Z,101440.28515625
2023-04-09T02:22:06.968Z,101441.05078125
2023-04-09T02:23:06.439Z,101436.9296875
2023-04-09T02:24:06.436Z,101440.98046875
2023-04-09T02:25:08.792Z,101440.5546875
2023-04-09T02:26:06.409Z,101443.828125
2023-04-09T02:27:06.838Z,101441.2265625
2023-04-09T02:28:06.455Z,101440.984375
2023-04-09T02:29:06.440Z,101440.078125
2023-04-09T02:30:06.415Z,101440.14453125
2023-04-09T02:31:06.496Z,101441.3984375
2023-04-09T02:32:06.855Z,101443.69921875
2023-04-09T02:33:06.449Z,101441.35546875
2023-04-09T02:34:06.445Z,101443.1640625
2023-04-09T02:35:06.457Z,101443.38671875
2023-04-09T02:36:08.861Z,101442.38671875
2023-04-09T02:37:06.873Z,101443.50390625
2023-04-09T02:38:06.444Z,101440.80859375
2023-04-09T02:39:06.424Z,101441.109375
2023-04-09T02:40:07.734Z,101440.04296875
2023-04-09T02:41:06.440Z,101438.546875
2023-04-09T02:42:06.832Z,101441.234375
2023-04-09T02:43:06.402Z,101439.3671875
2023-04-09T02:44:06.438Z,101436.9765625
2023-04-09T02:45:06.436Z,101438.53515625
2023-04-09T02:46:06.526Z,101441.55859375
2023-04-09T02:47:11.362Z,101440.2109375
2023-04-09T02:48:06.415Z,101439.75
2023-04-09T02:49:06.517Z,101436.22265625
2023-04-09T02:50:06.883Z,101436.75390625
2023-04-09T02:51:06.421Z,101439.93359375
2023-04-09T02:52:06.836Z,101441.8125
2023-04-09T02:53:06.439Z,101439.8046875
2023-04-09T02:54:06.427Z,101437.73828125
2023-04-09T02:55:06.427Z,101438.0859375
2023-04-09T02:56:06.419Z,101438.57421875
2023-04-09T02:57:06.845Z,101439.19921875
2023-04-09T02:58:08.756Z,101438.5625
2023-04-09T02:59:06.452Z,101440.19921875
2023-04-09T03:00:06.474Z,101438.01953125
2023-04-09T03:01:06.467Z,101434.7890625
2023-04-09T03:02:06.662Z,101433.5703125
2023-04-09T03:03:06.544Z,101433.0703125
2023-04-09T03:04:06.519Z,101433.1875
2023-04-09T03:05:06.419Z,101431.72265625
2023-04-09T03:06:06.443Z,101430.94140625
2023-04-09T03:07:06.845Z,101430.5390625
2023-04-09T03:08:06.441Z,101430.890625
2023-04-09T03:09:08.796Z,101429.0390625
2023-04-09T03:10:06.464Z,101431.1953125
2023-04-09T03:11:06.446Z,101427.13671875
2023-04-09T03:12:06.838Z,101427.01953125
2023-04-09T03:13:06.425Z,101422.83984375
2023-04-09T03:14:06.467Z,101428.140625
2023-04-09T03:15:06.421Z,101426.85546875
2023-04-09T03:16:06.517Z,101425.98046875
2023-04-09T03:17:06.864Z,101423.8671875
2023-04-09T03:18:06.466Z,101425.265625
2023-04-09T03:19:06.441Z,101424.87109375
2023-04-09T03:20:08.803Z,101424.80078125
2023-04-09T03:21:06.467Z,101423.52734375
2023-04-09T03:22:06.855Z,101421.75390625
2023-04-09T03:23:06.441Z,101421.3203125
2023-04-09T03:24:06.440Z,101420.59375
2023-04-09T03:25:06.432Z,101420.6796875
2023-04-09T03:26:06.476Z,101418.515625
2023-04-09T03:27:06.843Z,101419.234375
2023-04-09T03:28:06.441Z,101421.8671875
2023-04-09T03:29:06.428Z,101417.9921875
2023-04-09T03:30:06.476Z,101419.2421875
2023-04-09T03:31:08.838Z,101415.671875
2023-04-09T03:32:06.862Z,101416.203125
2023-04-09T03:33:06.435Z,101414.7890625
2023-04-09T03:34:06.444Z,101419.4765625
2023-04-09T03:35:06.446Z,101416.9453125
2023-04-09T03:36:06.442Z,101417.55078125
2023-04-09T03:37:06.572Z,101416.72265625
2023-04-09T03:38:06.437Z,101415.3046875
2023-04-09T03:39:06.429Z,101413.54296875
2023-04-09T03:40:06.445Z,101411.828125
2023-04-09T03:41:06.602Z,101414.33203125
2023-04-09T03:42:11.226Z,101414.93359375
2023-04-09T03:43:06.425Z,101414.76953125
2023-04-09T03:44:06.427Z,101414.98046875
2023-04-09T03:45:06.468Z,101413.56640625
2023-04-09T03:46:06.484Z,101414.86328125
2023-04-09T03:47:06.830Z,101413.07421875
2023-04-09T03:48:06.440Z,101412.54296875
2023-04-09T03:49:06.433Z,101418.02734375
2023-04-09T03:50:06.444Z,101413.08203125
2023-04-09T03:51:06.441Z,101414.94140625
2023-04-09T03:52:06.864Z,101417.16796875
2023-04-09T03:53:08.804Z,101415.5859375
2023-04-09T03:54:06.440Z,101415.7734375
2023-04-09T03:55:06.444Z,101415.1796875
2023-04-09T03:56:06.427Z,101413.55078125
2023-04-09T03:57:06.854Z,101415.359375
2023-04-09T03:58:06.441Z,101413.2265625
2023-04-09T03:59:06.451Z,101417.80078125
2023-04-09T04:00:06.443Z,101414.62109375
2023-04-09T04:01:06.435Z,101418.84375
2023-04-09T04:02:06.888Z,101418.4453125
2023-04-09T04:03:06.750Z,101415.27734375
2023-04-09T04:04:08.976Z,101414.69140625
2023-04-09T04:05:06.439Z,101417.04296875
2023-04-09T04:06:06.436Z,101416.16015625
2023-04-09T04:07:06.850Z,101415.5234375
2023-04-09T04:08:06.410Z,101414.48046875
2023-04-09T04:09:06.437Z,101414.33984375
2023-04-09T04:10:06.592Z,101413.1328125
2023-04-09T04:11:06.418Z,101411.53515625
2023-04-09T04:12:06.851Z,101409.87109375
2023-04-09T04:13:06.504Z,101410.6171875
2023-04-09T04:14:06.432Z,101413.39453125
2023-04-09T04:15:08.786Z,101410.515625
2023-04-09T04:16:06.513Z,101409.1015625
2023-04-09T04:17:06.535Z,101409.43359375
2023-04-09T04:18:06.439Z,101410.62109375
2023-04-09T04:19:06.424Z,101412.6796875
2023-04-09T04:20:06.420Z,101414.64453125
2023-04-09T04:21:06.440Z,101413.34375
2023-04-09T04:22:06.854Z,101418.30859375
2023-04-09T04:23:06.445Z,101414.41796875
2023-04-09T04:24:06.460Z,101416.62109375
2023-04-09T04:25:06.467Z,101412.62890625
2023-04-09T04:26:08.841Z,101417.4921875
2023-04-09T04:27:06.851Z,101413.20703125
2023-04-09T04:28:06.432Z,101415.71484375
2023-04-09T04:29:06.424Z,101413.5625
2023-04-09T04:30:06.424Z,101413.3671875
2023-04-09T04:31:06.439Z,101418.1875
2023-04-09T04:32:06.908Z,101415.453125
2023-04-09T04:33:06.427Z,101419.16015625
2023-04-09T04:34:06.416Z,101415.22265625
2023-04-09T04:35:06.426Z,101418.15234375
2023-04-09T04:36:06.443Z,101418.3828125
2023-04-09T04:37:09.277Z,101420.91015625
2023-04-09T04:38:06.428Z,101420.26171875
2023-04-09T04:39:06.444Z,101419.328125
2023-04-09T04:40:06.433Z,101418.234375
2023-04-09T04:41:06.437Z,101420.2578125
2023-04-09T04:42:06.848Z,101419.63671875
2023-04-09T04:43:06.423Z,101420.09765625
2023-04-09T04:44:06.436Z,101422.3203125
2023-04-09T04:45:06.485Z,101425.7734375
2023-04-09T04:46:06.500Z,101424.05859375
2023-04-09T04:47:06.404Z,101426.703125
2023-04-09T04:48:08.800Z,101424.77734375
2023-04-09T04:49:06.437Z,101424.0859375
2023-04-09T04:50:06.448Z,101429.328125
2023-04-09T04:51:06.436Z,101428.07421875
2023-04-09T04:52:06.839Z,101430.74609375
2023-04-09T04:53:06.445Z,101428.234375
2023-04-09T04:54:06.424Z,101431.453125
2023-04-09T04:55:06.442Z,101428.00390625
2023-04-09T04:56:06.411Z,101431.62109375
2023-04-09T04:57:06.824Z,101431.7421875
2023-04-09T04:58:06.453Z,101434.76171875
2023-04-09T04:59:08.806Z,101428.80078125
2023-04-09T05:00:06.449Z,101429.41796875
2023-04-09T05:01:06.765Z,101433.94921875
2023-04-09T05:02:06.897Z,101432.9296875
2023-04-09T05:03:06.667Z,101431.00390625
2023-04-09T05:04:06.445Z,101432.578125
2023-04-09T05:05:06.419Z,101429.3125
2023-04-09T05:06:06.413Z,101433.94140625
2023-04-09T05:07:06.843Z,101434.10546875
2023-04-09T05:08:06.422Z,101432.92578125
2023-04-09T05:09:06.424Z,101436.03125
2023-04-09T05:10:08.756Z,101436.125
2023-04-09T05:11:06.433Z,101434.4375
2023-04-09T05:12:06.836Z,101432.27734375
2023-04-09T05:13:06.434Z,101436.07421875
2023-04-09T05:14:06.435Z,101431.4140625
2023-04-09T05:15:06.419Z,101437.16015625
2023-04-09T05:16:06.457Z,101434.10546875
2023-04-09T05:17:06.861Z,101435.75
2023-04-09T05:18:06.444Z,101431.80859375
2023-04-09T05:19:06.428Z,101434.984375
2023-04-09T05:20:06.440Z,101436.1640625
2023-04-09T05:21:08.800Z,101435.1796875
2023-04-09T05:22:06.846Z,101436.109375
2023-04-09T05:23:06.421Z,101436.296875
2023-04-09T05:24:06.405Z,101432.33203125
2023-04-09T05:25:06.442Z,101434.64453125
2023-04-09T05:26:06.421Z,101439.04296875
2023-04-09T05:27:06.856Z,101434.609375
2023-04-09T05:28:06.469Z,101436.1328125
2023-04-09T05:29:06.440Z,101436.96484375
2023-04-09T05:30:06.426Z,101435.58203125
2023-04-09T05:31:06.450Z,101435.171875
2023-04-09T05:32:11.224Z,101433.953125
2023-04-09T05:33:06.435Z,101432.2265625
2023-04-09T05:34:06.432Z,101435.5234375
2023-04-09T05:35:06.450Z,101433.546875
2023-04-09T05:36:06.452Z,101434.03515625
2023-04-09T05:37:06.844Z,101436.19140625
2023-04-09T05:38:06.427Z,101436.83203125
2023-04-09T05:39:06.423Z,101434.71875
2023-04-09T05:40:07.372Z,101438.82421875
2023-04-09T05:41:06.438Z,101437.65234375
2023-04-09T05:42:06.837Z,101433.20703125
2023-04-09T05:43:08.784Z,101435.015625
2023-04-09T05:44:06.471Z,101434.25
2023-04-09T05:45:06.431Z,101435.6328125
2023-04-09T05:46:06.448Z,101438.2265625
2023-04-09T05:47:06.534Z,101440.24609375
2023-04-09T05:48:06.446Z,101439.01171875
2023-04-09T05:49:06.441Z,101442.61328125
2023-04-09T05:50:06.453Z,101443.25390625
2023-04-09T05:51:06.433Z,101442.1640625
2023-04-09T05:52:06.855Z,101443.95703125
2023-04-09T05:53:06.445Z,101444.55859375
2023-04-09T05:54:08.796Z,101445.25390625
2023-04-09T05:55:06.455Z,101445.87109375
2023-04-09T05:56:06.449Z,101446.72265625
2023-04-09T05:57:06.580Z,101443.140625
2023-04-09T05:58:06.428Z,101442.30859375
2023-04-09T05:59:06.417Z,101440.375
2023-04-09T06:00:06.443Z,101440.3671875
2023-04-09T06:01:06.436Z,101438.90625
2023-04-09T06:02:06.918Z,101441.890625
2023-04-09T06:03:06.505Z,101442.95703125
2023-04-09T06:04:06.660Z,101443.21484375
2023-04-09T06:05:08.795Z,101437.1796875
2023-04-09T06:06:06.474Z,101439.0859375
2023-04-09T06:07:06.847Z,101435.16796875
2023-04-09T06:08:06.444Z,101437.4921875
2023-04-09T06:09:06.430Z,101438.17578125
2023-04-09T06:10:07.435Z,101441.05859375
2023-04-09T06:11:06.433Z,101438.48828125
2023-04-09T06:12:06.508Z,101442.0546875
2023-04-09T06:13:06.430Z,101435.0703125
2023-04-09T06:14:06.436Z,101436.421875
2023-04-09T06:15:06.449Z,101440.015625
2023-04-09T06:16:08.850Z,101438.3046875
2023-04-09T06:17:06.912Z,101434.52734375
2023-04-09T06:18:06.578Z,101434.88671875
2023-04-09T06:19:06.428Z,101433.50390625
2023-04-09T06:20:06.465Z,101433.83203125
2023-04-09T06:21:06.450Z,101435.1640625
2023-04-09T06:22:06.841Z,101433.4296875
2023-04-09T06:23:06.460Z,101436.76171875
2023-04-09T06:24:06.466Z,101436.4609375
2023-04-09T06:25:06.434Z,101436.76171875
2023-04-09T06:26:06.447Z,101437.68359375
2023-04-09T06:27:11.273Z,101439.5
2023-04-09T06:28:06.433Z,101435.92578125
2023-04-09T06:29:06.469Z,101440.4453125
2023-04-09T06:30:06.428Z,101435.6484375
2023-04-09T06:31:06.517Z,101433.734375
2023-04-09T06:32:06.879Z,101435.890625
2023-04-09T06:33:06.469Z,101433.70703125
2023-04-09T06:34:06.438Z,101433.875
2023-04-09T06:35:06.442Z,101433.203125
2023-04-09T06:36:06.452Z,101431.8203125
2023-04-09T06:37:06.931Z,101432.421875
2023-04-09T06:38:08.746Z,101429.91796875
2023-04-09T06:39:06.442Z,101432.46484375
2023-04-09T06:40:06.442Z,101433.62890625
2023-04-09T06:41:06.427Z,101430.87890625
2023-04-09T06:42:06.866Z,101436.4453125
2023-04-09T06:43:06.435Z,101437.1796875
2023-04-09T06:44:06.443Z,101438.6328125
2023-04-09T06:45:06.420Z,101443.01171875
2023-04-09T06:46:06.470Z,101436.44140625
2023-04-09T06:47:06.544Z,101439.65625
2023-04-09T06:48:06.493Z,101441.5703125
2023-04-09T06:49:08.809Z,101441.390625
2023-04-09T06:50:06.438Z,101441.5234375
2023-04-09T06:51:06.448Z,101440.265625
2023-04-09T06:52:06.898Z,101443.55078125
2023-04-09T06:53:06.419Z,101444.11328125
2023-04-09T06:54:06.448Z,101443.1640625
2023-04-09T06:55:06.443Z,101447.14453125
2023-04-09T06:56:06.443Z,101446.6328125
2023-04-09T06:57:07.034Z,101447.7890625
2023-04-09T06:58:06.442Z,101444.7890625
2023-04-09T06:59:06.430Z,101447.38671875
2023-04-09T07:00:08.798Z,101444.06640625
2023-04-09T07:01:06.436Z,101445.203125
2023-04-09T07:02:06.972Z,101446.36328125
2023-04-09T07:03:06.522Z,101446.2421875
2023-04-09T07:04:06.456Z,101442.8046875
2023-04-09T07:05:06.686Z,101445.9765625
2023-04-09T07:06:06.440Z,101444.9921875
2023-04-09T07:07:06.883Z,101444.9453125
2023-04-09T07:08:06.438Z,101445.328125
2023-04-09T07:09:06.436Z,101442.5546875
2023-04-09T07:10:07.372Z,101444.46875
2023-04-09T07:11:08.787Z,101445.07421875
2023-04-09T07:12:06.876Z,101443.86328125
2023-04-09T07:13:06.452Z,101444.37890625
2023-04-09T07:14:06.439Z,101445.2578125
2023-04-09T07:15:06.450Z,101444.60546875
2023-04-09T07:16:06.450Z,101440.953125
2023-04-09T07:17:06.903Z,101438.14453125
2023-04-09T07:18:06.505Z,101443.0546875
2023-04-09T07:19:06.441Z,101441.08203125
2023-04-09T07:20:06.416Z,101442.3671875
2023-04-09T07:21:06.426Z,101445.33984375
2023-04-09T07:22:11.306Z,101445.20703125
2023-04-09T07:23:06.448Z,101447.109375
2023-04-09T07:24:06.428Z,101448.08203125
2023-04-09T07:25:06.580Z,101444.0078125
2023-04-09T07:26:06.458Z,101439.8515625
2023-04-09T07:27:06.901Z,101440.69140625
2023-04-09T07:28:06.445Z,101438.19921875
2023-04-09T07:29:06.443Z,101440.5234375
2023-04-09T07:30:06.445Z,101439.78515625
2023-04-09T07:31:06.511Z,101446.09765625
2023-04-09T07:32:06.934Z,101443.73046875
2023-04-09T07:33:08.786Z,101443.62109375
2023-04-09T07:34:06.419Z,101438.54296875
2023-04-09T07:35:06.441Z,101441.6796875
2023-04-09T07:36:06.481Z,101440.26171875
2023-04-09T07:37:06.916Z,101441.68359375
2023-04-09T07:38:06.454Z,101444.9375
2023-04-09T07:39:06.520Z,101443.34765625
2023-04-09T07:40:07.374Z,101445.9140625
2023-04-09T07:41:06.436Z,101445.09375
2023-04-09T07:42:06.596Z,101441.33984375
2023-04-09T07:43:06.450Z,101444.71875
2023-04-09T07:44:08.750Z,101442.9375
2023-04-09T07:45:06.453Z,101442.3828125
2023-04-09T07:46:06.422Z,101442.69140625
2023-04-09T07:47:07.014Z,101439.75390625
2023-04-09T07:48:06.444Z,101440.21484375
2023-04-09T07:49:06.465Z,101442.11328125
2023-04-09T07:50:06.744Z,101445.59375
2023-04-09T07:51:06.435Z,101445.953125
2023-04-09T07:52:06.595Z,101447.0390625
2023-04-09T07:53:06.447Z,101445.0703125
2023-04-09T07:54:06.437Z,101447.0703125
2023-04-09T07:55:08.822Z,101447.96875
2023-04-09T07:56:06.437Z,101447.421875
2023-04-09T07:57:06.921Z,101455.71484375
2023-04-09T07:58:06.437Z,101450.96484375
2023-04-09T07:59:06.426Z,101459.95703125
2023-04-09T08:00:06.432Z,101456.48046875
2023-04-09T08:01:06.454Z,101463.71484375
2023-04-09T08:02:06.540Z,101462.49609375
2023-04-09T08:03:06.663Z,101463.390625
2023-04-09T08:04:06.740Z,101464.63671875
2023-04-09T08:05:06.481Z,101465.08984375
2023-04-09T08:06:08.753Z,101460.20703125
2023-04-09T08:07:06.876Z,101457.1953125
2023-04-09T08:08:06.445Z,101458.98828125
2023-04-09T08:09:06.442Z,101459.40234375
2023-04-09T08:10:07.379Z,101460.8515625
2023-04-09T08:11:06.419Z,101457.96484375
2023-04-09T08:12:06.858Z,101459.6796875
2023-04-09T08:13:06.423Z,101459.12890625
2023-04-09T08:14:06.438Z,101457.3046875
2023-04-09T08:15:06.436Z,101458.46875
2023-04-09T08:16:06.460Z,101460.1015625
2023-04-09T08:17:11.285Z,101461.58984375
2023-04-09T08:18:06.521Z,101461.19921875
2023-04-09T08:19:06.429Z,101461.921875
2023-04-09T08:20:06.444Z,101465.4296875
2023-04-09T08:21:06.455Z,101462.984375
2023-04-09T08:22:06.895Z,101462.890625
2023-04-09T08:23:06.443Z,101463.828125
2023-04-09T08:24:06.411Z,101464.93359375
2023-04-09T08:25:06.459Z,101469.75
2023-04-09T08:26:06.430Z,101466.2890625
2023-04-09T08:27:06.853Z,101466.08984375
2023-04-09T08:28:08.757Z,101466.1875
2023-04-09T08:29:06.499Z,101469.86328125
2023-04-09T08:30:06.425Z,101466.390625
2023-04-09T08:31:06.441Z,101463.1171875
2023-04-09T08:32:06.484Z,101466.015625
2023-04-09T08:33:06.492Z,101466.9609375
2023-04-09T08:34:06.449Z,101464.09765625
2023-04-09T08:35:06.536Z,101467.92578125
2023-04-09T08:36:06.455Z,101468.50390625
2023-04-09T08:37:06.892Z,101472.40234375
2023-04-09T08:38:06.437Z,101477.40625
2023-04-09T08:39:08.822Z,101474.33203125
2023-04-09T08:40:07.369Z,101471.9921875
2023-04-09T08:41:06.427Z,101474.80078125
2023-04-09T08:42:06.464Z,101474.48828125
2023-04-09T08:43:06.444Z,101473.390625
2023-04-09T08:44:06.440Z,101472.0234375
2023-04-09T08:45:06.444Z,101472.375
2023-04-09T08:46:06.498Z,101475.0625
2023-04-09T08:47:06.915Z,101474.8203125
2023-04-09T08:48:06.492Z,101476.4140625
2023-04-09T08:49:06.426Z,101475.1484375
2023-04-09T08:50:08.767Z,101472.22265625
2023-04-09T08:51:06.419Z,101473.609375
2023-04-09T08:52:06.911Z,101474.1953125
2023-04-09T08:53:06.452Z,101471.72265625
2023-04-09T08:54:06.444Z,101471.6953125
2023-04-09T08:55:06.483Z,101465.328125
2023-04-09T08:56:06.436Z,101469.6875
2023-04-09T08:57:06.937Z,101465.0390625
2023-04-09T08:58:06.447Z,101469.734375
2023-04-09T08:59:06.403Z,101468.21484375
2023-04-09T09:00:06.451Z,101467.1640625
2023-04-09T09:01:08.829Z,101470.7578125
2023-04-09T09:02:07.012Z,101468.23046875
2023-04-09T09:03:06.744Z,101473.6875
2023-04-09T09:04:06.455Z,101474.5390625
2023-04-09T09:05:06.445Z,101474.93359375
2023-04-09T09:06:06.425Z,101477.91015625
2023-04-09T09:07:06.874Z,101477.5078125
2023-04-09T09:08:06.459Z,101474.0625
2023-04-09T09:09:06.435Z,101473.9453125
2023-04-09T09:10:06.465Z,101473.3359375
2023-04-09T09:11:06.446Z,101475.0390625
2023-04-09T09:12:11.293Z,101472.8203125
2023-04-09T09:13:06.423Z,101468.38671875
2023-04-09T09:14:06.418Z,101467.71484375
2023-04-09T09:15:06.430Z,101469.828125
2023-04-09T09:16:06.433Z,101471.53125
2023-04-09T09:17:07.011Z,101468.140625
2023-04-09T09:18:06.463Z,101466.57421875
2023-04-09T09:19:06.415Z,101467.6328125
2023-04-09T09:20:06.440Z,101468.125
2023-04-09T09:21:06.447Z,101463.2734375
2023-04-09T09:22:06.886Z,101463.95703125
2023-04-09T09:23:08.820Z,101464.65234375
2023-04-09T09:24:06.417Z,101460.67578125
2023-04-09T09:25:06.566Z,101464.40234375
2023-04-09T09:26:06.438Z,101467.1953125
2023-04-09T09:27:06.877Z,101466.62890625
2023-04-09T09:28:06.413Z,101465.5
2023-04-09T09:29:06.501Z,101464.8125
2023-04-09T09:30:06.449Z,101465.1796875
2023-04-09T09:31:06.472Z,101466.4921875
2023-04-09T09:32:06.889Z,101467.26953125
2023-04-09T09:33:06.441Z,101463.7421875
2023-04-09T09:34:08.764Z,101464.2109375
2023-04-09T09:35:06.423Z,101472.2109375
2023-04-09T09:36:06.452Z,101466.95703125
2023-04-09T09:37:07.972Z,101464.15625
2023-04-09T09:38:06.421Z,101463.484375
2023-04-09T09:39:06.564Z,101461.484375
2023-04-09T09:40:07.430Z,101459.05859375
2023-04-09T09:41:06.445Z,101464.5
2023-04-09T09:42:06.873Z,101464.85546875
2023-04-09T09:43:06.454Z,101463.33203125
2023-04-09T09:44:06.415Z,101464.71484375
2023-04-09T09:45:08.756Z,101466.73046875
2023-04-09T09:46:06.463Z,101467.5078125
2023-04-09T09:47:06.562Z,101465.6328125
2023-04-09T09:48:06.443Z,101462.234375
2023-04-09T09:49:06.441Z,101463.328125
2023-04-09T09:50:06.440Z,101462.10546875
2023-04-09T09:51:06.445Z,101459.68359375
2023-04-09T09:52:06.618Z,101460.953125
2023-04-09T09:53:06.455Z,101458.640625
2023-04-09T09:54:06.441Z,101457.44140625
2023-04-09T09:55:06.441Z,101457.765625
2023-04-09T09:56:08.820Z,101463.1484375
2023-04-09T09:57:06.885Z,101463.2734375